sensor_id;sensor_type;location;lat;lon;timestamp;temperature;humidity
50570;DHT22;36525;49.398;7.614;2022-09-29T00:01:02;6.40;99.90
50570;DHT22;36525;49.398;7.614;2022-09-29T00:03:30;6.40;99.90
50570;DHT22;36525;49.398;7.614;2022-09-29T00:05:57;6.40;99.90
50570;DHT22;36525;49.398;7.614;2022-09-29T00:08:28;6.40;99.90
50570;DHT22;36525;49.398;7.614;2022-09-29T00:10:57;6.20;99.90
50570;DHT22;36525;49.398;7.614;2022-09-29T00:13:24;6.10;99.90
50570;DHT22;36525;49.398;7.614;2022-09-29T00:15:59;5.90;99.90
50570;DHT22;36525;49.398;7.614;2022-09-29T00:18:28;5.80;99.90
50570;DHT22;36525;49.398;7.614;2022-09-29T00:21:05;5.70;99.90
50570;DHT22;36525;49.398;7.614;2022-09-29T00:23:33;5.50;99.90
50570;DHT22;36525;49.398;7.614;2022-09-29T00:26:05;5.40;99.90
50570;DHT22;36525;49.398;7.614;2022-09-29T00:28:35;5.30;99.90
50570;DHT22;36525;49.398;7.614;2022-09-29T00:31:04;5.30;99.90
50570;DHT22;36525;49.398;7.614;2022-09-29T00:33:34;5.20;99.90
50570;DHT22;36525;49.398;7.614;2022-09-29T00:36:05;5.20;99.90
50570;DHT22;36525;49.398;7.614;2022-09-29T00:38:36;5.10;99.90
50570;DHT22;36525;49.398;7.614;2022-09-29T00:41:05;5.20;99.90
50570;DHT22;36525;49.398;7.614;2022-09-29T00:44:51;5.30;99.90
50570;DHT22;36525;49.398;7.614;2022-09-29T00:47:15;5.30;99.90
50570;DHT22;36525;49.398;7.614;2022-09-29T00:49:53;5.30;99.90
50570;DHT22;36525;49.398;7.614;2022-09-29T00:52:38;5.30;99.90
50570;DHT22;36525;49.398;7.614;2022-09-29T00:55:15;5.30;99.90
50570;DHT22;36525;49.398;7.614;2022-09-29T00:58:02;5.40;99.90
50570;DHT22;36525;49.398;7.614;2022-09-29T01:00:32;5.60;99.90
50570;DHT22;36525;49.398;7.614;2022-09-29T01:03:07;5.70;99.90
50570;DHT22;36525;49.398;7.614;2022-09-29T01:05:42;5.70;99.90
50570;DHT22;36525;49.398;7.614;2022-09-29T01:08:16;5.70;99.90
50570;DHT22;36525;49.398;7.614;2022-09-29T01:11:05;5.60;99.90
50570;DHT22;36525;49.398;7.614;2022-09-29T01:13:33;5.50;99.90
50570;DHT22;36525;49.398;7.614;2022-09-29T01:16:01;5.50;99.90
50570;DHT22;36525;49.398;7.614;2022-09-29T01:18:28;5.40;99.90
50570;DHT22;36525;49.398;7.614;2022-09-29T01:24:08;5.40;99.90
50570;DHT22;36525;49.398;7.614;2022-09-29T01:40:32;5.20;99.90
50570;DHT22;36525;49.398;7.614;2022-09-29T01:43:11;5.10;99.90
50570;DHT22;36525;49.398;7.614;2022-09-29T01:46:12;5.10;99.90
50570;DHT22;36525;49.398;7.614;2022-09-29T01:48:49;5.10;99.90
50570;DHT22;36525;49.398;7.614;2022-09-29T01:51:27;5.00;99.90
50570;DHT22;36525;49.398;7.614;2022-09-29T01:54:02;4.90;99.90
50570;DHT22;36525;49.398;7.614;2022-09-29T01:56:57;4.80;99.90
50570;DHT22;36525;49.398;7.614;2022-09-29T02:02:14;4.80;99.90
50570;DHT22;36525;49.398;7.614;2022-09-29T02:04:56;4.70;99.90
50570;DHT22;36525;49.398;7.614;2022-09-29T02:07:30;4.60;99.90
50570;DHT22;36525;49.398;7.614;2022-09-29T02:10:11;4.70;99.90
50570;DHT22;36525;49.398;7.614;2022-09-29T02:12:43;4.70;99.90
50570;DHT22;36525;49.398;7.614;2022-09-29T02:15:13;4.70;99.90
50570;DHT22;36525;49.398;7.614;2022-09-29T02:17:47;4.60;99.90
50570;DHT22;36525;49.398;7.614;2022-09-29T02:20:15;4.60;99.90
50570;DHT22;36525;49.398;7.614;2022-09-29T02:22:42;4.60;99.90
50570;DHT22;36525;49.398;7.614;2022-09-29T02:25:11;4.70;99.90
50570;DHT22;36525;49.398;7.614;2022-09-29T02:27:39;4.70;99.90
50570;DHT22;36525;49.398;7.614;2022-09-29T02:30:07;4.70;99.90
50570;DHT22;36525;49.398;7.614;2022-09-29T02:32:35;4.70;99.90
50570;DHT22;36525;49.398;7.614;2022-09-29T02:35:04;4.80;99.90
50570;DHT22;36525;49.398;7.614;2022-09-29T02:43:11;4.80;99.90
50570;DHT22;36525;49.398;7.614;2022-09-29T02:49:05;4.70;99.90
50570;DHT22;36525;49.398;7.614;2022-09-29T02:51:45;4.70;99.90
50570;DHT22;36525;49.398;7.614;2022-09-29T02:59:32;4.90;99.90
50570;DHT22;36525;49.398;7.614;2022-09-29T03:02:02;4.90;99.90
50570;DHT22;36525;49.398;7.614;2022-09-29T03:04:29;5.00;99.90
50570;DHT22;36525;49.398;7.614;2022-09-29T03:06:57;5.00;99.90
50570;DHT22;36525;49.398;7.614;2022-09-29T03:09:24;5.00;99.90
50570;DHT22;36525;49.398;7.614;2022-09-29T03:11:50;5.00;99.90
50570;DHT22;36525;49.398;7.614;2022-09-29T03:14:17;5.00;99.90
50570;DHT22;36525;49.398;7.614;2022-09-29T03:16:45;5.10;99.90
50570;DHT22;36525;49.398;7.614;2022-09-29T03:19:12;5.10;99.90
50570;DHT22;36525;49.398;7.614;2022-09-29T03:21:38;5.20;99.90
50570;DHT22;36525;49.398;7.614;2022-09-29T03:24:05;5.20;99.90
50570;DHT22;36525;49.398;7.614;2022-09-29T03:26:32;5.10;99.90
50570;DHT22;36525;49.398;7.614;2022-09-29T03:28:59;5.10;99.90
50570;DHT22;36525;49.398;7.614;2022-09-29T03:31:26;5.10;99.90
50570;DHT22;36525;49.398;7.614;2022-09-29T03:33:53;5.10;99.90
50570;DHT22;36525;49.398;7.614;2022-09-29T03:36:20;5.10;99.90
50570;DHT22;36525;49.398;7.614;2022-09-29T03:38:47;5.20;99.90
50570;DHT22;36525;49.398;7.614;2022-09-29T03:41:14;5.30;99.90
50570;DHT22;36525;49.398;7.614;2022-09-29T03:43:41;5.40;99.90
50570;DHT22;36525;49.398;7.614;2022-09-29T03:46:08;5.40;99.90
50570;DHT22;36525;49.398;7.614;2022-09-29T03:48:35;5.40;99.90
50570;DHT22;36525;49.398;7.614;2022-09-29T03:51:02;5.40;99.90
50570;DHT22;36525;49.398;7.614;2022-09-29T03:53:29;5.40;99.90
50570;DHT22;36525;49.398;7.614;2022-09-29T03:55:56;5.30;99.90
50570;DHT22;36525;49.398;7.614;2022-09-29T03:58:23;5.20;99.90
50570;DHT22;36525;49.398;7.614;2022-09-29T04:00:51;5.20;99.90
50570;DHT22;36525;49.398;7.614;2022-09-29T04:03:19;5.10;99.90
50570;DHT22;36525;49.398;7.614;2022-09-29T04:05:47;5.10;99.90
50570;DHT22;36525;49.398;7.614;2022-09-29T04:08:15;5.10;99.90
50570;DHT22;36525;49.398;7.614;2022-09-29T04:10:42;5.20;99.90
50570;DHT22;36525;49.398;7.614;2022-09-29T04:13:09;5.30;99.90
50570;DHT22;36525;49.398;7.614;2022-09-29T04:15:36;5.50;99.90
50570;DHT22;36525;49.398;7.614;2022-09-29T04:18:04;5.60;99.90
50570;DHT22;36525;49.398;7.614;2022-09-29T04:20:31;5.60;99.90
50570;DHT22;36525;49.398;7.614;2022-09-29T04:22:59;5.70;99.90
50570;DHT22;36525;49.398;7.614;2022-09-29T04:25:26;5.70;99.90
50570;DHT22;36525;49.398;7.614;2022-09-29T04:27:53;5.70;99.90
50570;DHT22;36525;49.398;7.614;2022-09-29T04:30:20;5.80;99.90
50570;DHT22;36525;49.398;7.614;2022-09-29T04:32:47;5.80;99.90
50570;DHT22;36525;49.398;7.614;2022-09-29T04:35:14;5.80;99.90
50570;DHT22;36525;49.398;7.614;2022-09-29T04:37:41;5.80;99.90
50570;DHT22;36525;49.398;7.614;2022-09-29T04:40:10;5.90;99.90
50570;DHT22;36525;49.398;7.614;2022-09-29T04:42:37;5.90;99.90
50570;DHT22;36525;49.398;7.614;2022-09-29T04:45:04;5.80;99.90
50570;DHT22;36525;49.398;7.614;2022-09-29T04:47:31;5.80;99.90
50570;DHT22;36525;49.398;7.614;2022-09-29T04:49:58;5.90;99.90
50570;DHT22;36525;49.398;7.614;2022-09-29T04:52:25;6.00;99.90
50570;DHT22;36525;49.398;7.614;2022-09-29T04:54:52;6.00;99.90
50570;DHT22;36525;49.398;7.614;2022-09-29T04:57:19;6.00;99.90
50570;DHT22;36525;49.398;7.614;2022-09-29T04:59:46;6.10;99.90
50570;DHT22;36525;49.398;7.614;2022-09-29T05:02:12;6.10;99.90
50570;DHT22;36525;49.398;7.614;2022-09-29T05:04:39;6.10;99.90
50570;DHT22;36525;49.398;7.614;2022-09-29T05:07:06;6.20;99.90
50570;DHT22;36525;49.398;7.614;2022-09-29T05:09:33;6.40;99.90
50570;DHT22;36525;49.398;7.614;2022-09-29T05:12:00;6.40;99.90
50570;DHT22;36525;49.398;7.614;2022-09-29T05:14:28;6.50;99.90
50570;DHT22;36525;49.398;7.614;2022-09-29T05:16:55;6.50;99.90
50570;DHT22;36525;49.398;7.614;2022-09-29T05:19:22;6.50;99.90
50570;DHT22;36525;49.398;7.614;2022-09-29T05:21:49;6.60;99.90
50570;DHT22;36525;49.398;7.614;2022-09-29T05:24:16;6.60;99.90
50570;DHT22;36525;49.398;7.614;2022-09-29T05:26:42;6.70;99.90
50570;DHT22;36525;49.398;7.614;2022-09-29T05:29:09;6.70;99.90
50570;DHT22;36525;49.398;7.614;2022-09-29T05:31:36;6.70;99.90
50570;DHT22;36525;49.398;7.614;2022-09-29T05:34:03;6.70;99.90
50570;DHT22;36525;49.398;7.614;2022-09-29T05:36:30;6.70;99.90
50570;DHT22;36525;49.398;7.614;2022-09-29T05:38:57;6.70;99.90
50570;DHT22;36525;49.398;7.614;2022-09-29T05:41:24;6.70;99.90
50570;DHT22;36525;49.398;7.614;2022-09-29T05:43:53;6.70;99.90
50570;DHT22;36525;49.398;7.614;2022-09-29T05:46:21;6.60;99.90
50570;DHT22;36525;49.398;7.614;2022-09-29T05:48:49;6.60;99.90
50570;DHT22;36525;49.398;7.614;2022-09-29T05:51:18;6.60;99.90
50570;DHT22;36525;49.398;7.614;2022-09-29T05:53:49;6.60;99.90
50570;DHT22;36525;49.398;7.614;2022-09-29T05:56:18;6.60;99.90
50570;DHT22;36525;49.398;7.614;2022-09-29T05:58:48;6.60;99.90
50570;DHT22;36525;49.398;7.614;2022-09-29T06:01:21;6.60;99.90
50570;DHT22;36525;49.398;7.614;2022-09-29T06:03:49;6.70;99.90
50570;DHT22;36525;49.398;7.614;2022-09-29T06:06:21;6.80;99.90
50570;DHT22;36525;49.398;7.614;2022-09-29T06:08:49;6.80;99.90
50570;DHT22;36525;49.398;7.614;2022-09-29T06:11:19;6.90;99.90
50570;DHT22;36525;49.398;7.614;2022-09-29T06:13:50;6.90;99.90
50570;DHT22;36525;49.398;7.614;2022-09-29T06:16:20;7.00;99.90
50570;DHT22;36525;49.398;7.614;2022-09-29T06:18:49;7.00;99.90
50570;DHT22;36525;49.398;7.614;2022-09-29T06:21:18;7.00;99.90
50570;DHT22;36525;49.398;7.614;2022-09-29T06:23:56;7.00;99.90
50570;DHT22;36525;49.398;7.614;2022-09-29T06:26:24;7.00;99.90
50570;DHT22;36525;49.398;7.614;2022-09-29T06:28:53;7.00;99.90
50570;DHT22;36525;49.398;7.614;2022-09-29T06:31:22;7.10;99.90
50570;DHT22;36525;49.398;7.614;2022-09-29T06:33:50;7.20;99.90
50570;DHT22;36525;49.398;7.614;2022-09-29T06:36:22;7.40;99.90
50570;DHT22;36525;49.398;7.614;2022-09-29T06:39:12;7.60;99.90
50570;DHT22;36525;49.398;7.614;2022-09-29T06:41:41;7.70;99.90
50570;DHT22;36525;49.398;7.614;2022-09-29T06:44:14;7.90;99.90
50570;DHT22;36525;49.398;7.614;2022-09-29T06:46:41;7.90;99.90
50570;DHT22;36525;49.398;7.614;2022-09-29T06:49:11;7.90;99.90
50570;DHT22;36525;49.398;7.614;2022-09-29T06:51:42;8.00;99.90
50570;DHT22;36525;49.398;7.614;2022-09-29T06:54:14;8.00;99.90
50570;DHT22;36525;49.398;7.614;2022-09-29T06:56:49;8.10;99.90
50570;DHT22;36525;49.398;7.614;2022-09-29T06:59:17;8.10;99.90
50570;DHT22;36525;49.398;7.614;2022-09-29T07:01:44;8.20;99.90
50570;DHT22;36525;49.398;7.614;2022-09-29T07:04:15;8.20;99.90
50570;DHT22;36525;49.398;7.614;2022-09-29T07:06:42;8.10;99.90
50570;DHT22;36525;49.398;7.614;2022-09-29T07:09:11;8.20;99.90
50570;DHT22;36525;49.398;7.614;2022-09-29T07:11:43;8.40;99.90
50570;DHT22;36525;49.398;7.614;2022-09-29T07:14:15;8.50;99.90
50570;DHT22;36525;49.398;7.614;2022-09-29T07:16:43;8.70;99.90
50570;DHT22;36525;49.398;7.614;2022-09-29T07:19:10;9.00;99.90
50570;DHT22;36525;49.398;7.614;2022-09-29T07:21:37;9.10;99.90
50570;DHT22;36525;49.398;7.614;2022-09-29T07:24:04;9.20;99.90
50570;DHT22;36525;49.398;7.614;2022-09-29T07:26:32;9.40;99.90
50570;DHT22;36525;49.398;7.614;2022-09-29T07:28:58;9.60;99.90
50570;DHT22;36525;49.398;7.614;2022-09-29T07:31:25;9.70;99.90
50570;DHT22;36525;49.398;7.614;2022-09-29T07:33:53;9.80;99.90
50570;DHT22;36525;49.398;7.614;2022-09-29T07:36:22;10.00;99.90
50570;DHT22;36525;49.398;7.614;2022-09-29T07:38:50;10.20;99.90
50570;DHT22;36525;49.398;7.614;2022-09-29T07:41:20;10.30;99.90
50570;DHT22;36525;49.398;7.614;2022-09-29T07:43:49;10.30;99.90
50570;DHT22;36525;49.398;7.614;2022-09-29T07:46:16;10.30;99.90
50570;DHT22;36525;49.398;7.614;2022-09-29T07:48:43;10.20;99.90
50570;DHT22;36525;49.398;7.614;2022-09-29T07:51:18;10.10;99.90
50570;DHT22;36525;49.398;7.614;2022-09-29T07:53:46;10.10;99.90
50570;DHT22;36525;49.398;7.614;2022-09-29T07:56:19;10.20;99.90
50570;DHT22;36525;49.398;7.614;2022-09-29T07:58:49;10.20;99.90
50570;DHT22;36525;49.398;7.614;2022-09-29T08:01:18;10.20;99.90
50570;DHT22;36525;49.398;7.614;2022-09-29T08:03:51;10.20;99.90
50570;DHT22;36525;49.398;7.614;2022-09-29T08:06:21;10.20;99.90
50570;DHT22;36525;49.398;7.614;2022-09-29T08:08:49;10.30;99.90
50570;DHT22;36525;49.398;7.614;2022-09-29T08:11:30;10.30;99.90
50570;DHT22;36525;49.398;7.614;2022-09-29T08:13:59;10.50;99.90
50570;DHT22;36525;49.398;7.614;2022-09-29T08:16:26;10.60;99.90
50570;DHT22;36525;49.398;7.614;2022-09-29T08:18:54;10.70;99.90
50570;DHT22;36525;49.398;7.614;2022-09-29T08:21:21;10.80;99.90
50570;DHT22;36525;49.398;7.614;2022-09-29T08:23:48;10.90;99.90
50570;DHT22;36525;49.398;7.614;2022-09-29T08:26:17;11.00;99.90
50570;DHT22;36525;49.398;7.614;2022-09-29T08:28:55;11.10;99.90
50570;DHT22;36525;49.398;7.614;2022-09-29T08:31:34;11.20;99.90
50570;DHT22;36525;49.398;7.614;2022-09-29T08:34:04;11.30;99.90
50570;DHT22;36525;49.398;7.614;2022-09-29T08:36:31;11.50;99.90
50570;DHT22;36525;49.398;7.614;2022-09-29T08:38:58;11.80;99.90
50570;DHT22;36525;49.398;7.614;2022-09-29T08:41:56;12.10;99.90
50570;DHT22;36525;49.398;7.614;2022-09-29T08:47:47;12.70;99.90
50570;DHT22;36525;49.398;7.614;2022-09-29T08:53:05;13.20;99.90
50570;DHT22;36525;49.398;7.614;2022-09-29T08:56:15;13.30;99.90
50570;DHT22;36525;49.398;7.614;2022-09-29T08:58:43;13.40;99.90
50570;DHT22;36525;49.398;7.614;2022-09-29T09:01:41;13.30;99.90
50570;DHT22;36525;49.398;7.614;2022-09-29T09:10:42;13.50;99.90
50570;DHT22;36525;49.398;7.614;2022-09-29T09:16:23;14.50;99.90
50570;DHT22;36525;49.398;7.614;2022-09-29T09:22:13;14.90;99.90
50570;DHT22;36525;49.398;7.614;2022-09-29T09:27:42;15.00;99.90
50570;DHT22;36525;49.398;7.614;2022-09-29T09:30:18;15.50;99.90
50570;DHT22;36525;49.398;7.614;2022-09-29T09:32:51;15.60;99.90
50570;DHT22;36525;49.398;7.614;2022-09-29T09:35:44;15.70;99.90
50570;DHT22;36525;49.398;7.614;2022-09-29T09:38:27;15.70;99.90
50570;DHT22;36525;49.398;7.614;2022-09-29T09:41:05;15.40;99.90
50570;DHT22;36525;49.398;7.614;2022-09-29T09:43:43;15.10;99.90
50570;DHT22;36525;49.398;7.614;2022-09-29T09:46:14;14.80;99.90
50570;DHT22;36525;49.398;7.614;2022-09-29T09:49:24;14.70;99.90
50570;DHT22;36525;49.398;7.614;2022-09-29T09:52:24;14.40;99.90
50570;DHT22;36525;49.398;7.614;2022-09-29T09:55:02;14.40;99.90
50570;DHT22;36525;49.398;7.614;2022-09-29T10:03:03;14.40;99.90
50570;DHT22;36525;49.398;7.614;2022-09-29T10:05:38;14.60;99.90
50570;DHT22;36525;49.398;7.614;2022-09-29T10:08:18;14.80;99.90
50570;DHT22;36525;49.398;7.614;2022-09-29T10:10:56;14.70;99.90
50570;DHT22;36525;49.398;7.614;2022-09-29T10:13:29;14.70;99.90
50570;DHT22;36525;49.398;7.614;2022-09-29T10:15:58;14.60;99.90
50570;DHT22;36525;49.398;7.614;2022-09-29T10:18:36;14.70;99.90
50570;DHT22;36525;49.398;7.614;2022-09-29T10:23:54;14.60;99.90
50570;DHT22;36525;49.398;7.614;2022-09-29T10:26:25;14.40;99.90
50570;DHT22;36525;49.398;7.614;2022-09-29T10:32:04;14.50;99.90
50570;DHT22;36525;49.398;7.614;2022-09-29T10:34:35;14.90;99.90
50570;DHT22;36525;49.398;7.614;2022-09-29T10:37:05;14.90;99.90
50570;DHT22;36525;49.398;7.614;2022-09-29T10:39:46;14.60;99.90
50570;DHT22;36525;49.398;7.614;2022-09-29T10:42:27;14.30;99.90
50570;DHT22;36525;49.398;7.614;2022-09-29T10:45:20;14.30;99.90
50570;DHT22;36525;49.398;7.614;2022-09-29T10:50:27;14.60;99.90
50570;DHT22;36525;49.398;7.614;2022-09-29T10:53:14;14.70;99.90
50570;DHT22;36525;49.398;7.614;2022-09-29T10:55:52;14.70;99.90
50570;DHT22;36525;49.398;7.614;2022-09-29T10:58:58;14.80;99.90
50570;DHT22;36525;49.398;7.614;2022-09-29T11:01:34;15.00;99.90
50570;DHT22;36525;49.398;7.614;2022-09-29T11:04:25;15.30;99.90
50570;DHT22;36525;49.398;7.614;2022-09-29T11:06:55;15.60;99.90
50570;DHT22;36525;49.398;7.614;2022-09-29T11:09:28;15.60;99.90
50570;DHT22;36525;49.398;7.614;2022-09-29T11:11:57;15.50;99.90
50570;DHT22;36525;49.398;7.614;2022-09-29T11:20:04;15.60;99.90
50570;DHT22;36525;49.398;7.614;2022-09-29T11:29:22;16.20;99.90
50570;DHT22;36525;49.398;7.614;2022-09-29T11:35:02;15.90;99.90
50570;DHT22;36525;49.398;7.614;2022-09-29T11:40:32;15.40;99.90
50570;DHT22;36525;49.398;7.614;2022-09-29T11:49:32;15.90;99.90
50570;DHT22;36525;49.398;7.614;2022-09-29T11:57:54;16.20;99.90
50570;DHT22;36525;49.398;7.614;2022-09-29T12:00:41;15.90;99.90
50570;DHT22;36525;49.398;7.614;2022-09-29T12:03:20;15.70;99.90
50570;DHT22;36525;49.398;7.614;2022-09-29T12:15:07;16.10;99.90
50570;DHT22;36525;49.398;7.614;2022-09-29T12:17:41;15.70;99.90
50570;DHT22;36525;49.398;7.614;2022-09-29T12:20:25;15.20;99.90
50570;DHT22;36525;49.398;7.614;2022-09-29T12:22:58;15.10;99.90
50570;DHT22;36525;49.398;7.614;2022-09-29T12:25:32;14.70;99.90
50570;DHT22;36525;49.398;7.614;2022-09-29T12:28:16;14.60;99.90
50570;DHT22;36525;49.398;7.614;2022-09-29T12:30:57;14.50;99.90
50570;DHT22;36525;49.398;7.614;2022-09-29T12:33:35;14.50;99.90
50570;DHT22;36525;49.398;7.614;2022-09-29T12:39:35;14.70;99.90
50570;DHT22;36525;49.398;7.614;2022-09-29T12:42:15;14.70;99.90
50570;DHT22;36525;49.398;7.614;2022-09-29T12:48:31;14.20;99.90
50570;DHT22;36525;49.398;7.614;2022-09-29T12:57:05;14.00;99.90
50570;DHT22;36525;49.398;7.614;2022-09-29T12:59:55;14.00;99.90
50570;DHT22;36525;49.398;7.614;2022-09-29T13:02:50;13.90;99.90
50570;DHT22;36525;49.398;7.614;2022-09-29T13:06:02;14.00;99.90
50570;DHT22;36525;49.398;7.614;2022-09-29T13:28:46;13.20;99.90
50570;DHT22;36525;49.398;7.614;2022-09-29T13:31:18;13.10;99.90
50570;DHT22;36525;49.398;7.614;2022-09-29T13:33:56;13.00;99.90
50570;DHT22;36525;49.398;7.614;2022-09-29T13:36:39;12.80;99.90
50570;DHT22;36525;49.398;7.614;2022-09-29T13:39:23;12.70;99.90
50570;DHT22;36525;49.398;7.614;2022-09-29T13:41:53;12.60;99.90
50570;DHT22;36525;49.398;7.614;2022-09-29T13:44:25;12.40;99.90
50570;DHT22;36525;49.398;7.614;2022-09-29T13:46:54;12.20;99.90
50570;DHT22;36525;49.398;7.614;2022-09-29T13:49:25;11.90;99.90
50570;DHT22;36525;49.398;7.614;2022-09-29T13:51:59;11.60;99.90
50570;DHT22;36525;49.398;7.614;2022-09-29T14:02:43;11.40;99.90
50570;DHT22;36525;49.398;7.614;2022-09-29T14:11:13;11.40;99.90
50570;DHT22;36525;49.398;7.614;2022-09-29T14:13:51;11.30;99.90
50570;DHT22;36525;49.398;7.614;2022-09-29T14:19:33;11.20;99.90
50570;DHT22;36525;49.398;7.614;2022-09-29T14:35:41;11.50;99.90
50570;DHT22;36525;49.398;7.614;2022-09-29T14:41:26;11.80;99.90
50570;DHT22;36525;49.398;7.614;2022-09-29T14:50:35;12.10;99.90
50570;DHT22;36525;49.398;7.614;2022-09-29T15:02:40;12.40;99.90
50570;DHT22;36525;49.398;7.614;2022-09-29T15:05:34;12.40;99.90
50570;DHT22;36525;49.398;7.614;2022-09-29T15:08:02;12.50;99.90
50570;DHT22;36525;49.398;7.614;2022-09-29T15:10:52;13.80;99.90
50570;DHT22;36525;49.398;7.614;2022-09-29T15:13:28;15.90;99.90
50570;DHT22;36525;49.398;7.614;2022-09-29T15:16:12;15.80;99.90
50570;DHT22;36525;49.398;7.614;2022-09-29T15:19:34;15.60;99.90
50570;DHT22;36525;49.398;7.614;2022-09-29T15:28:01;15.30;99.90
50570;DHT22;36525;49.398;7.614;2022-09-29T15:30:29;14.70;99.90
50570;DHT22;36525;49.398;7.614;2022-09-29T15:33:22;14.70;99.90
50570;DHT22;36525;49.398;7.614;2022-09-29T15:35:55;15.10;99.90
50570;DHT22;36525;49.398;7.614;2022-09-29T15:38:29;14.90;99.90
50570;DHT22;36525;49.398;7.614;2022-09-29T15:41:04;14.70;99.90
50570;DHT22;36525;49.398;7.614;2022-09-29T15:46:50;16.80;99.90
50570;DHT22;36525;49.398;7.614;2022-09-29T15:49:21;19.60;99.90
50570;DHT22;36525;49.398;7.614;2022-09-29T15:52:12;21.20;99.90
50570;DHT22;36525;49.398;7.614;2022-09-29T16:26:41;17.50;99.90
50570;DHT22;36525;49.398;7.614;2022-09-29T16:29:31;17.20;99.90
50570;DHT22;36525;49.398;7.614;2022-09-29T16:35:40;15.30;99.90
50570;DHT22;36525;49.398;7.614;2022-09-29T16:38:19;14.60;99.90
50570;DHT22;36525;49.398;7.614;2022-09-29T16:41:19;14.00;99.90
50570;DHT22;36525;49.398;7.614;2022-09-29T16:43:46;13.70;99.90
50570;DHT22;36525;49.398;7.614;2022-09-29T16:46:21;13.60;99.90
50570;DHT22;36525;49.398;7.614;2022-09-29T16:48:49;13.50;99.90
50570;DHT22;36525;49.398;7.614;2022-09-29T16:51:21;13.20;99.90
50570;DHT22;36525;49.398;7.614;2022-09-29T16:54:05;12.80;99.90
50570;DHT22;36525;49.398;7.614;2022-09-29T16:56:38;12.40;99.90
50570;DHT22;36525;49.398;7.614;2022-09-29T16:59:12;12.20;99.90
50570;DHT22;36525;49.398;7.614;2022-09-29T17:01:42;12.00;99.90
50570;DHT22;36525;49.398;7.614;2022-09-29T17:04:10;11.80;99.90
50570;DHT22;36525;49.398;7.614;2022-09-29T17:06:43;11.60;99.90
50570;DHT22;36525;49.398;7.614;2022-09-29T17:09:19;11.40;99.90
50570;DHT22;36525;49.398;7.614;2022-09-29T17:11:49;11.10;99.90
50570;DHT22;36525;49.398;7.614;2022-09-29T17:14:16;11.00;99.90
50570;DHT22;36525;49.398;7.614;2022-09-29T17:16:48;10.90;99.90
50570;DHT22;36525;49.398;7.614;2022-09-29T17:19:20;10.80;99.90
50570;DHT22;36525;49.398;7.614;2022-09-29T17:21:48;10.80;99.90
50570;DHT22;36525;49.398;7.614;2022-09-29T17:24:15;10.70;99.90
50570;DHT22;36525;49.398;7.614;2022-09-29T17:26:44;10.60;99.90
50570;DHT22;36525;49.398;7.614;2022-09-29T17:29:31;10.40;99.90
50570;DHT22;36525;49.398;7.614;2022-09-29T17:31:58;10.40;99.90
50570;DHT22;36525;49.398;7.614;2022-09-29T17:34:28;10.20;99.90
50570;DHT22;36525;49.398;7.614;2022-09-29T17:36:59;10.20;99.90
50570;DHT22;36525;49.398;7.614;2022-09-29T17:39:27;10.20;99.90
50570;DHT22;36525;49.398;7.614;2022-09-29T17:41:54;10.10;99.90
50570;DHT22;36525;49.398;7.614;2022-09-29T17:44:21;10.00;99.90
50570;DHT22;36525;49.398;7.614;2022-09-29T17:46:48;9.90;99.90
50570;DHT22;36525;49.398;7.614;2022-09-29T17:49:22;9.90;99.90
50570;DHT22;36525;49.398;7.614;2022-09-29T17:51:50;9.80;99.90
50570;DHT22;36525;49.398;7.614;2022-09-29T17:54:17;9.70;99.90
50570;DHT22;36525;49.398;7.614;2022-09-29T17:56:45;9.60;99.90
50570;DHT22;36525;49.398;7.614;2022-09-29T17:59:12;9.60;99.90
50570;DHT22;36525;49.398;7.614;2022-09-29T18:01:39;9.60;99.90
50570;DHT22;36525;49.398;7.614;2022-09-29T18:04:06;9.50;99.90
50570;DHT22;36525;49.398;7.614;2022-09-29T18:06:34;9.40;99.90
50570;DHT22;36525;49.398;7.614;2022-09-29T18:09:16;9.30;99.90
50570;DHT22;36525;49.398;7.614;2022-09-29T18:11:44;9.30;99.90
50570;DHT22;36525;49.398;7.614;2022-09-29T18:14:13;9.20;99.90
50570;DHT22;36525;49.398;7.614;2022-09-29T18:16:40;9.10;99.90
50570;DHT22;36525;49.398;7.614;2022-09-29T18:19:15;9.10;99.90
50570;DHT22;36525;49.398;7.614;2022-09-29T18:21:42;9.00;99.90
50570;DHT22;36525;49.398;7.614;2022-09-29T18:24:10;8.90;99.90
50570;DHT22;36525;49.398;7.614;2022-09-29T18:26:37;8.70;99.90
50570;DHT22;36525;49.398;7.614;2022-09-29T18:29:15;8.60;99.90
50570;DHT22;36525;49.398;7.614;2022-09-29T18:31:44;8.60;99.90
50570;DHT22;36525;49.398;7.614;2022-09-29T18:34:14;8.50;99.90
50570;DHT22;36525;49.398;7.614;2022-09-29T18:36:43;8.40;99.90
50570;DHT22;36525;49.398;7.614;2022-09-29T18:39:12;8.50;99.90
50570;DHT22;36525;49.398;7.614;2022-09-29T18:41:39;8.50;99.90
50570;DHT22;36525;49.398;7.614;2022-09-29T18:44:15;8.40;99.90
50570;DHT22;36525;49.398;7.614;2022-09-29T18:46:43;8.40;99.90
50570;DHT22;36525;49.398;7.614;2022-09-29T18:49:14;8.30;99.90
50570;DHT22;36525;49.398;7.614;2022-09-29T18:51:41;8.20;99.90
50570;DHT22;36525;49.398;7.614;2022-09-29T18:54:08;8.00;99.90
50570;DHT22;36525;49.398;7.614;2022-09-29T18:56:34;7.80;99.90
50570;DHT22;36525;49.398;7.614;2022-09-29T18:59:02;7.70;99.90
50570;DHT22;36525;49.398;7.614;2022-09-29T19:01:31;7.70;99.90
50570;DHT22;36525;49.398;7.614;2022-09-29T19:03:58;7.80;99.90
50570;DHT22;36525;49.398;7.614;2022-09-29T19:06:25;7.80;99.90
50570;DHT22;36525;49.398;7.614;2022-09-29T19:08:52;7.80;99.90
50570;DHT22;36525;49.398;7.614;2022-09-29T19:11:21;7.60;99.90
50570;DHT22;36525;49.398;7.614;2022-09-29T19:13:51;7.60;99.90
50570;DHT22;36525;49.398;7.614;2022-09-29T19:16:21;7.70;99.90
50570;DHT22;36525;49.398;7.614;2022-09-29T19:18:49;7.70;99.90
50570;DHT22;36525;49.398;7.614;2022-09-29T19:21:16;7.80;99.90
50570;DHT22;36525;49.398;7.614;2022-09-29T19:23:44;7.80;99.90
50570;DHT22;36525;49.398;7.614;2022-09-29T19:26:17;7.80;99.90
50570;DHT22;36525;49.398;7.614;2022-09-29T19:28:45;7.80;99.90
50570;DHT22;36525;49.398;7.614;2022-09-29T19:31:16;7.70;99.90
50570;DHT22;36525;49.398;7.614;2022-09-29T19:33:47;7.60;99.90
50570;DHT22;36525;49.398;7.614;2022-09-29T19:36:19;7.30;99.90
50570;DHT22;36525;49.398;7.614;2022-09-29T19:38:47;7.20;99.90
50570;DHT22;36525;49.398;7.614;2022-09-29T19:41:18;7.00;99.90
50570;DHT22;36525;49.398;7.614;2022-09-29T19:43:47;7.10;99.90
50570;DHT22;36525;49.398;7.614;2022-09-29T19:46:16;7.20;99.90
50570;DHT22;36525;49.398;7.614;2022-09-29T19:48:44;7.20;99.90
50570;DHT22;36525;49.398;7.614;2022-09-29T19:51:15;7.20;99.90
50570;DHT22;36525;49.398;7.614;2022-09-29T19:54:03;7.20;99.90
50570;DHT22;36525;49.398;7.614;2022-09-29T19:56:43;7.10;99.90
50570;DHT22;36525;49.398;7.614;2022-09-29T19:59:15;6.90;99.90
50570;DHT22;36525;49.398;7.614;2022-09-29T20:01:45;7.00;99.90
50570;DHT22;36525;49.398;7.614;2022-09-29T20:04:16;7.10;99.90
50570;DHT22;36525;49.398;7.614;2022-09-29T20:06:44;7.20;99.90
50570;DHT22;36525;49.398;7.614;2022-09-29T20:09:12;7.10;99.90
50570;DHT22;36525;49.398;7.614;2022-09-29T20:11:40;7.10;99.90